Time;durP1;ratioP1;P1;durP2;ratioP2;P2;SDS_P1;SDS_P2;PMS_P1;PMS_P2;Temp;Humidity;BMP_temperature;BMP_pressure;BME280_temperature;BME280_humidity;BME280_pressure;Samples;Min_cycle;Max_cycle;Signal;HPM_P1;HPM_P2
2022/06/09 00:01:43;;;;;;;6.27;4.80;;;18.10;83.90;;;20.45;62.72;100544.09;5070552;28;20224;-58
2022/06/09 00:04:16;;;;;;;4.60;4.17;;;18.10;84.40;;;20.47;62.29;100542.00;5021171;28;20196;-58
2022/06/09 00:06:51;;;;;;;6.20;5.40;;;18.00;84.30;;;20.53;62.35;100541.03;4733572;29;20212;-58
2022/06/09 00:09:17;;;;;;;6.70;4.70;;;18.00;84.50;;;20.57;62.31;100531.47;4811115;29;20234;-58
2022/06/09 00:14:23;;;;;;;5.67;4.83;;;18.00;84.70;;;20.63;62.13;100533.16;5169984;27;20637;-58
2022/06/09 00:16:49;;;;;;;7.70;5.03;;;18.00;84.70;;;20.63;62.48;100530.50;5129833;28;20210;-58
2022/06/09 00:19:18;;;;;;;9.47;6.43;;;18.10;84.80;;;20.51;62.70;100537.81;5130310;28;20199;-59
2022/06/09 00:21:45;;;;;;;6.43;5.93;;;18.00;85.00;;;20.43;63.21;100546.22;5097654;28;20214;-60
2022/06/09 00:24:12;;;;;;;6.67;6.00;;;18.00;85.20;;;20.39;63.29;100545.91;5103919;28;20201;-58
2022/06/09 00:26:39;;;;;;;4.97;4.47;;;18.00;85.30;;;20.45;62.86;100534.22;5103310;28;20230;-58
2022/06/09 00:29:06;;;;;;;6.17;5.40;;;18.00;85.20;;;20.53;62.76;100535.69;5066442;28;20195;-58
2022/06/09 00:33:04;;;;;;;7.50;6.30;;;18.00;85.50;;;20.43;63.17;100528.31;4972463;28;20201;-60
2022/06/09 00:35:29;;;;;;;8.07;6.87;;;18.00;85.70;;;20.51;63.05;100522.56;4701913;29;20254;-62
2022/06/09 00:38:08;;;;;;;8.43;7.60;;;18.00;85.60;;;20.54;62.74;100534.66;5172243;27;20951;-61
2022/06/09 00:40:35;;;;;;;8.30;7.60;;;18.00;85.60;;;20.50;63.38;100533.50;5151316;27;20198;-59
2022/06/09 00:43:04;;;;;;;9.50;8.60;;;18.00;85.80;;;20.46;63.66;100537.72;5142138;27;20199;-59
2022/06/09 00:45:35;;;;;;;11.07;9.87;;;18.00;85.80;;;20.43;63.33;100546.22;5137802;27;20246;-60
2022/06/09 00:48:24;;;;;;;8.30;7.50;;;18.00;85.90;;;20.38;63.15;100549.63;5103261;28;20201;-60
2022/06/09 00:50:59;;;;;;;9.10;8.20;;;18.00;85.70;;;20.47;63.12;100547.34;5082316;28;20661;-60
2022/06/09 00:53:34;;;;;;;10.50;9.40;;;18.00;85.90;;;20.51;62.94;100545.81;5019123;28;20197;-58
2022/06/09 00:59:54;;;;;;;10.43;9.33;;;18.00;85.90;;;20.40;63.85;100542.16;5167490;27;21146;-58
2022/06/09 01:02:21;;;;;;;10.70;9.63;;;18.00;85.90;;;20.38;63.66;100546.13;5114104;28;20217;-58
2022/06/09 01:04:53;;;;;;;10.53;9.43;;;18.00;86.10;;;20.36;63.42;100546.38;5124142;27;20218;-59
2022/06/09 01:07:26;;;;;;;10.73;9.63;;;17.90;85.90;;;20.37;63.83;100547.22;5103205;28;20220;-58
2022/06/09 01:09:52;;;;;;;10.53;9.57;;;17.90;86.10;;;20.40;63.92;100544.84;5048892;28;20256;-62
2022/06/09 01:12:25;;;;;;;10.93;9.87;;;18.00;86.10;;;20.40;63.70;100552.03;5066517;28;20188;-61
2022/06/09 01:14:59;;;;;;;11.97;10.17;;;17.90;86.20;;;20.40;63.43;100549.38;5024780;28;20214;-60
2022/06/09 01:18:50;;;;;;;11.13;10.03;;;17.90;86.30;;;20.39;63.49;100555.78;4860114;29;20211;-60
2022/06/09 01:21:16;;;;;;;11.13;10.13;;;17.90;86.10;;;20.40;63.90;100562.75;4557301;31;20210;-60
2022/06/09 01:26:59;;;;;;;11.67;10.47;;;17.90;86.30;;;20.29;64.08;100558.28;5155954;27;20425;-59
2022/06/09 01:29:40;;;;;;;12.53;11.43;;;17.90;86.30;;;20.35;64.14;100555.44;5088088;28;20239;-59
2022/06/09 01:32:18;;;;;;;15.33;13.73;;;17.90;86.60;;;20.35;64.30;100554.66;5111404;28;20299;-59
2022/06/09 01:35:05;;;;;;;13.83;12.53;;;17.90;86.60;;;20.37;63.88;100564.06;5070209;28;20282;-58
2022/06/09 01:37:38;;;;;;;16.13;14.43;;;17.90;87.40;;;20.40;63.89;100557.41;4925192;29;20208;-59
2022/06/09 01:40:09;;;;;;;14.77;13.40;;;17.90;86.80;;;20.43;63.77;100559.59;4800475;29;20209;-58
2022/06/09 01:42:38;;;;;;;15.80;13.30;;;17.90;86.90;;;20.45;63.56;100554.81;4743122;30;20278;-58
2022/06/09 01:45:04;;;;;;;15.97;14.27;;;17.90;86.80;;;20.46;63.96;100557.25;4629651;30;20240;-61
2022/06/09 01:47:30;;;;;;;15.23;13.63;;;17.90;87.10;;;20.54;63.93;100550.69;4544938;31;20269;-59
2022/06/09 01:52:38;;;;;;;16.77;15.17;;;17.90;87.00;;;20.55;63.94;100547.75;5172025;27;21141;-61
2022/06/09 01:55:10;;;;;;;18.97;15.80;;;18.00;87.10;;;20.52;64.09;100558.13;5122203;28;20656;-59
2022/06/09 01:57:41;;;;;;;18.03;15.93;;;18.00;87.10;;;20.47;64.24;100556.19;5086820;28;20197;-60
2022/06/09 02:00:13;;;;;;;16.53;14.30;;;18.00;87.00;;;20.51;63.71;100562.69;5090636;28;20193;-61
2022/06/09 02:02:47;;;;;;;16.33;14.63;;;18.00;87.00;;;20.57;63.96;100560.88;5059225;28;20228;-62
2022/06/09 02:05:21;;;;;;;18.77;16.20;;;18.00;86.80;;;20.61;63.96;100559.34;5085436;28;20228;-63
2022/06/09 02:07:53;;;;;;;18.20;16.37;;;18.10;87.10;;;20.63;63.48;100562.59;5060726;28;20208;-60
2022/06/09 02:10:30;;;;;;;18.83;16.77;;;18.10;87.20;;;20.56;63.72;100564.63;4946188;28;20227;-60
2022/06/09 02:13:11;;;;;;;18.20;15.07;;;18.10;87.20;;;20.61;63.83;100565.50;4796264;29;20243;-61
2022/06/09 02:18:20;;;;;;;19.63;15.87;;;18.10;86.80;;;20.82;63.40;100578.13;5172110;27;20958;-57
2022/06/09 02:20:54;;;;;;;16.70;13.70;;;18.10;87.10;;;20.93;62.72;100581.75;5132066;27;20206;-57
2022/06/09 02:23:21;;;;;;;18.30;15.63;;;18.10;87.10;;;21.01;62.92;100572.50;5129617;28;20191;-59
2022/06/09 02:25:48;;;;;;;19.43;17.40;;;18.20;86.90;;;21.02;62.26;100577.59;5096142;28;20295;-59
2022/06/09 02:28:15;;;;;;;18.27;16.33;;;18.20;86.50;;;21.03;62.55;100589.94;5078902;28;20275;-59
2022/06/09 02:30:42;;;;;;;20.90;18.27;;;18.30;86.30;;;21.03;62.70;100592.63;5138738;27;20190;-59
2022/06/09 02:33:19;;;;;;;23.73;18.90;;;18.30;86.10;;;20.92;63.03;100588.16;5089974;28;20654;-57
2022/06/09 02:35:47;;;;;;;19.57;17.10;;;18.40;85.90;;;20.92;62.71;100598.88;4974886;28;20659;-59
2022/06/09 02:38:28;;;;;;;19.87;16.30;;;18.40;85.70;;;20.96;62.93;100589.31;4802354;29;20671;-58
2022/06/09 02:43:34;;;;;;;20.43;17.63;;;18.40;85.80;;;21.01;62.10;100597.41;5171895;27;20633;-60
2022/06/09 02:46:03;;;;;;;18.53;16.13;;;18.40;85.60;;;21.08;61.93;100595.41;5114395;28;20223;-59
2022/06/09 02:48:31;;;;;;;19.10;16.17;;;18.40;85.60;;;21.16;61.63;100594.97;5114953;28;20663;-61
2022/06/09 02:51:12;;;;;;;24.43;19.30;;;18.40;85.50;;;;;;5128936;28;20220;-59
2022/06/09 02:53:39;;;;;;;21.17;16.17;;;18.40;85.50;;;21.17;61.56;100593.91;5079791;28;20196;-60
2022/06/09 02:56:06;;;;;;;16.93;15.13;;;18.50;85.30;;;21.24;61.40;100599.09;5114517;28;20260;-64
2022/06/09 02:58:33;;;;;;;19.93;17.00;;;18.50;85.30;;;21.31;61.84;100600.53;5108827;28;20203;-60
2022/06/09 03:01:00;;;;;;;18.53;16.30;;;18.50;85.30;;;21.31;61.42;100602.38;5082328;28;20628;-60
2022/06/09 03:03:27;;;;;;;25.13;18.87;;;18.50;84.90;;;21.25;61.65;100609.53;5060587;28;20213;-58
2022/06/09 03:05:52;;;;;;;23.90;19.03;;;18.50;84.70;;;21.19;61.33;100609.72;4995086;28;20522;-60
2022/06/09 03:08:31;;;;;;;19.33;16.90;;;18.50;84.70;;;21.12;61.77;100604.56;5171962;27;20657;-60
2022/06/09 03:10:58;;;;;;;22.83;17.63;;;18.60;84.70;;;21.16;61.77;100616.38;5150745;27;20208;-61
2022/06/09 03:13:25;;;;;;;20.57;16.43;;;18.50;84.60;;;21.22;61.92;100618.09;5150384;27;20194;-60
2022/06/09 03:15:52;;;;;;;23.20;18.33;;;18.50;84.70;;;21.27;61.39;100618.16;5143626;27;20700;-58
2022/06/09 03:18:20;;;;;;;21.13;17.70;;;18.50;84.80;;;21.31;61.25;100621.94;5132136;27;20241;-60
2022/06/09 03:20:47;;;;;;;20.80;18.10;;;18.50;84.70;;;21.28;60.65;100625.13;5092883;28;20192;-60
2022/06/09 03:23:15;;;;;;;21.83;18.10;;;18.50;84.30;;;21.26;61.25;100624.56;5033562;28;20194;-60
2022/06/09 03:25:43;;;;;;;24.50;20.77;;;18.50;84.10;;;21.23;60.84;100627.72;5042846;28;20221;-59
2022/06/09 03:28:41;;;;;;;18.37;16.60;;;18.50;84.10;;;21.22;61.24;100634.16;5015136;28;20674;-56
2022/06/09 03:33:46;;;;;;;24.13;18.70;;;18.50;84.10;;;21.29;60.80;100632.09;5171250;27;20639;-60
2022/06/09 03:36:13;;;;;;;22.17;18.47;;;18.50;84.20;;;21.29;60.52;100634.78;5112786;27;20290;-60
2022/06/09 03:38:40;;;;;;;19.97;17.70;;;18.50;84.10;;;21.30;60.86;100636.38;5117956;27;20186;-60
2022/06/09 03:41:07;;;;;;;22.77;18.20;;;18.50;84.30;;;21.34;60.66;100640.22;5169457;27;20198;-60
2022/06/09 03:43:34;;;;;;;22.73;18.43;;;18.50;84.20;;;21.33;60.17;100638.56;5147278;27;20279;-60
2022/06/09 03:46:01;;;;;;;19.33;16.57;;;18.50;83.90;;;21.33;60.46;100638.56;5162468;27;20218;-60
2022/06/09 03:48:29;;;;;;;22.87;19.47;;;18.50;84.00;;;21.35;60.28;100641.81;5117088;28;20193;-59
2022/06/09 03:50:57;;;;;;;22.03;18.67;;;18.50;84.00;;;21.38;59.96;100645.88;5074199;28;20204;-60
2022/06/09 03:53:23;;;;;;;24.03;18.03;;;18.50;83.90;;;21.40;60.23;100649.91;5110667;28;20215;-61
2022/06/09 03:55:49;;;;;;;21.57;17.77;;;18.50;83.90;;;21.43;60.23;100649.44;5032355;28;20218;-59
2022/06/09 03:58:29;;;;;;;23.77;19.03;;;18.60;83.80;;;21.44;59.74;100658.28;5172287;27;21140;-59
2022/06/09 04:00:56;;;;;;;28.13;19.80;;;18.60;83.50;;;21.43;59.61;100660.16;5151441;27;20269;-57
2022/06/09 04:03:23;;;;;;;20.83;16.13;;;18.60;83.40;;;21.43;59.68;100665.50;5150471;27;20214;-58
2022/06/09 04:05:49;;;;;;;25.33;19.07;;;18.60;83.30;;;21.42;59.74;100663.06;5160291;27;20209;-59
2022/06/09 04:08:16;;;;;;;21.47;18.23;;;18.60;84.00;;;21.43;60.28;100673.53;5150399;27;20561;-60
2022/06/09 04:10:43;;;;;;;19.37;15.07;;;18.60;83.20;;;21.47;60.07;100671.97;5121691;27;20217;-59
2022/06/09 04:13:16;;;;;;;21.30;18.20;;;18.60;83.30;;;21.51;59.47;100675.78;5036189;28;20190;-59
2022/06/09 04:17:13;;;;;;;21.07;17.03;;;18.70;83.30;;;21.38;59.93;100684.19;5007929;28;20292;-59
2022/06/09 04:22:18;;;;;;;19.97;17.83;;;18.70;83.20;;;21.49;59.42;100685.13;5171637;27;20549;-60
2022/06/09 04:24:45;;;;;;;23.73;18.30;;;18.70;83.00;;;21.53;59.42;100689.75;5129540;27;20263;-59
2022/06/09 04:27:12;;;;;;;27.53;17.97;;;18.70;82.90;;;21.54;59.21;100688.69;5129701;27;20203;-59
2022/06/09 04:29:39;;;;;;;20.37;16.63;;;18.70;82.70;;;21.53;59.03;100694.28;5128739;28;20207;-60
2022/06/09 04:32:07;;;;;;;21.67;18.23;;;18.70;82.60;;;21.55;58.95;100689.50;5105627;28;20205;-60
2022/06/09 04:34:34;;;;;;;16.47;14.00;;;18.60;82.50;;;21.55;58.97;100690.31;5058406;28;20223;-60
2022/06/09 04:37:01;;;;;;;21.07;17.47;;;18.70;82.50;;;21.56;58.92;100699.97;5047431;28;20246;-61
2022/06/09 04:42:14;;;;;;;23.27;17.07;;;18.70;83.20;;;21.61;58.71;100704.56;5171256;27;20645;-58
2022/06/09 04:44:41;;;;;;;20.33;15.37;;;18.70;82.10;;;21.62;58.92;100710.75;5145508;27;20263;-61
2022/06/09 04:47:08;;;;;;;16.47;14.43;;;18.70;82.10;;;21.64;58.40;100711.31;5128944;28;20207;-61
2022/06/09 04:49:34;;;;;;;20.60;16.40;;;18.80;82.20;;;21.65;58.88;100700.34;5128750;28;20195;-60
2022/06/09 04:52:31;;;;;;;18.13;14.63;;;18.80;82.00;;;21.64;58.71;100703.25;5061124;28;20221;-61
2022/06/09 04:54:58;;;;;;;20.90;14.97;;;18.80;81.90;;;21.66;58.75;100706.50;5045221;28;20230;-61
2022/06/09 04:57:25;;;;;;;19.90;16.13;;;18.80;82.00;;;21.71;58.73;100703.91;5035597;28;20205;-58
2022/06/09 04:59:52;;;;;;;18.17;15.83;;;18.80;82.00;;;21.73;58.44;100707.16;5023280;28;22853;-61
2022/06/09 05:04:52;;;;;;;22.47;17.03;;;18.80;81.90;;;21.72;58.38;100716.25;5165178;27;20401;-61
2022/06/09 05:07:19;;;;;;;20.40;17.50;;;18.80;81.80;;;21.73;58.74;100724.03;5129555;28;20191;-61
2022/06/09 05:09:45;;;;;;;19.07;16.93;;;18.80;81.90;;;21.74;58.32;100730.19;5129290;28;20304;-61
2022/06/09 05:12:12;;;;;;;23.50;17.23;;;18.80;81.60;;;21.75;58.47;100734.53;5128112;28;20195;-58
2022/06/09 05:14:39;;;;;;;19.43;16.97;;;18.80;81.50;;;21.72;58.64;100745.72;5100280;28;20220;-59
2022/06/09 05:17:06;;;;;;;20.20;16.00;;;18.80;81.40;;;21.68;58.45;100748.06;5059501;28;20580;-58
2022/06/09 05:19:33;;;;;;;25.67;17.47;;;18.80;81.20;;;21.68;58.28;100744.59;5085579;28;20270;-60
2022/06/09 05:22:01;;;;;;;19.50;15.50;;;18.80;81.10;;;21.67;58.11;100746.47;5088694;28;24729;-58
2022/06/09 05:24:27;;;;;;;19.33;15.60;;;18.80;81.10;;;21.69;58.13;100754.25;5074050;28;20227;-59
2022/06/09 05:29:31;;;;;;;20.70;16.50;;;18.80;81.10;;;21.72;58.09;100765.31;5171561;27;20653;-60
2022/06/09 05:31:58;;;;;;;23.33;15.83;;;18.90;81.00;;;21.74;57.91;100767.72;5134076;27;20195;-61
2022/06/09 05:34:32;;;;;;;18.90;15.43;;;18.90;81.00;;;21.68;57.98;100766.81;5126571;27;20656;-62
2022/06/09 05:37:01;;;;;;;22.03;15.10;;;18.80;80.10;;;21.66;57.75;100760.91;5089537;28;20201;-60
2022/06/09 05:44:50;;;;;;;19.27;13.50;;;18.80;79.80;;;21.62;57.66;100772.38;5044722;28;20573;-59
2022/06/09 05:45:13;;;;;;;17.57;12.70;;;18.80;79.60;;;21.58;57.62;100775.53;4981165;28;20575;-60
2022/06/09 05:50:42;;;;;;;15.77;12.23;;;18.80;79.40;;;21.59;57.22;100790.56;5171386;27;20649;-59
2022/06/09 05:53:09;;;;;;;15.47;10.80;;;18.80;79.10;;;21.59;56.73;100793.25;5149677;27;20197;-60
2022/06/09 05:55:36;;;;;;;16.50;11.70;;;18.80;78.90;;;21.59;56.72;100795.91;5137884;27;20241;-60
2022/06/09 05:58:03;;;;;;;14.63;11.13;;;18.80;78.90;;;21.61;56.70;100802.91;5129167;28;20197;-59
2022/06/09 06:00:30;;;;;;;17.90;11.37;;;18.80;78.90;;;21.65;56.32;100806.72;5107562;28;20271;-61
2022/06/09 06:02:57;;;;;;;14.50;11.17;;;18.80;78.80;;;21.64;56.41;100810.44;5033009;28;20577;-61
2022/06/09 06:08:11;;;;;;;13.33;10.00;;;18.80;78.70;;;21.68;56.30;100825.78;4981420;28;20211;-61
2022/06/09 06:11:14;;;;;;;18.23;9.97;;;18.80;78.60;;;21.70;56.46;100825.56;4973869;28;20239;-59
2022/06/09 06:13:54;;;;;;;16.13;10.60;;;18.80;78.40;;;21.75;56.23;100828.31;5172419;27;20621;-61
2022/06/09 06:16:22;;;;;;;13.97;9.07;;;18.80;78.00;;;21.77;55.35;100831.56;5094108;28;20231;-60
2022/06/09 06:19:07;;;;;;;14.00;8.93;;;18.80;77.30;;;21.75;55.19;100836.34;5090030;28;20200;-59
2022/06/09 06:21:35;;;;;;;14.20;9.07;;;18.80;76.90;;;21.77;55.55;100836.91;5066602;28;20215;-61
2022/06/09 06:24:04;;;;;;;11.03;8.63;;;18.90;77.10;;;21.87;55.54;100847.81;5060787;28;20204;-61
2022/06/09 06:26:32;;;;;;;10.53;8.40;;;18.90;77.30;;;21.96;54.98;100851.72;5091133;28;20903;-58
2022/06/09 06:29:02;;;;;;;13.60;9.37;;;19.00;77.10;;;22.03;54.94;100858.53;5076203;28;20537;-59
2022/06/09 06:31:28;;;;;;;14.90;10.13;;;19.00;76.80;;;22.06;54.53;100860.69;5088921;28;20261;-57
2022/06/09 06:33:54;;;;;;;13.83;8.73;;;19.10;77.00;;;22.12;54.18;100869.63;4941268;28;20307;-61
2022/06/09 06:38:19;;;;;;;14.10;9.07;;;19.10;76.20;;;22.13;54.25;100879.31;5137050;27;20528;-59
2022/06/09 06:40:46;;;;;;;13.13;10.20;;;19.20;75.70;;;22.13;54.17;100879.31;5124220;28;20193;-62
2022/06/09 06:43:14;;;;;;;13.43;8.77;;;19.20;75.50;;;22.02;54.55;100875.66;5087525;28;20247;-61
2022/06/09 06:45:41;;;;;;;12.93;9.40;;;19.30;75.20;;;22.04;54.65;100886.13;5062303;28;20243;-59
2022/06/09 06:48:09;;;;;;;13.13;8.10;;;19.30;75.10;;;22.05;54.05;100893.13;5017517;28;20193;-63
2022/06/09 06:50:43;;;;;;;12.23;8.33;;;19.30;74.80;;;22.08;54.08;100889.97;4957755;28;20258;-66
2022/06/09 06:53:12;;;;;;;12.03;8.07;;;19.30;74.90;;;22.09;54.14;100900.41;4982660;28;20282;-60
2022/06/09 06:58:17;;;;;;;11.57;7.23;;;19.30;74.50;;;22.17;53.60;100904.56;5171659;27;20638;-60
2022/06/09 07:00:44;;;;;;;9.30;7.37;;;19.30;74.40;;;22.23;53.27;100906.25;5126225;27;20382;-60
2022/06/09 07:03:11;;;;;;;12.33;8.00;;;19.30;74.10;;;22.23;53.26;100911.59;5127871;28;20195;-61
2022/06/09 07:05:42;;;;;;;9.37;7.73;;;19.30;73.70;;;22.23;52.76;100911.59;5083215;27;20238;-61
2022/06/09 07:08:09;;;;;;;11.27;8.17;;;19.30;73.70;;;22.27;53.05;100916.22;5064708;28;20200;-60
2022/06/09 07:10:37;;;;;;;12.83;8.00;;;19.40;73.80;;;22.34;52.93;100918.75;5034765;28;20309;-58
2022/06/09 07:13:04;;;;;;;10.90;7.50;;;19.40;73.80;;;22.40;52.46;100917.75;5064067;28;20288;-61
2022/06/09 07:18:12;;;;;;;10.10;7.10;;;19.40;73.70;;;22.57;52.63;100931.94;5161059;27;20630;-58
2022/06/09 07:20:40;;;;;;;9.27;7.17;;;19.50;73.60;;;22.64;52.16;100927.25;5129845;28;20297;-60
2022/06/09 07:23:09;;;;;;;9.90;6.07;;;19.60;73.40;;;22.71;52.10;100937.78;5141733;27;20288;-60
2022/06/09 07:25:38;;;;;;;8.27;6.73;;;19.60;73.30;;;22.79;52.27;100942.72;5121131;27;20227;-59
2022/06/09 07:28:06;;;;;;;14.43;8.13;;;19.70;73.20;;;22.88;51.75;100952.78;5076852;28;20237;-60
2022/06/09 07:30:34;;;;;;;10.10;7.17;;;19.70;72.80;;;22.92;51.73;100953.91;4995308;28;20207;-61
2022/06/09 07:33:01;;;;;;;12.37;8.20;;;19.80;72.60;;;22.95;51.14;100957.13;4902036;29;20222;-63
2022/06/09 07:35:28;;;;;;;9.73;7.30;;;19.90;72.00;;;22.86;51.33;100954.91;4833549;29;20660;-60
2022/06/09 07:39:54;;;;;;;12.23;8.40;;;19.90;71.90;;;22.71;51.51;100960.06;5154154;27;20621;-59
2022/06/09 07:42:20;;;;;;;12.30;7.87;;;19.90;71.40;;;22.65;51.14;100957.56;5136238;27;20203;-61
2022/06/09 07:44:47;;;;;;;12.83;8.43;;;19.80;71.50;;;22.60;51.59;100960.97;5098935;28;20283;-61
2022/06/09 07:47:14;;;;;;;15.63;8.80;;;19.80;71.60;;;22.55;51.48;100963.59;5086381;28;20339;-60
2022/06/09 07:49:41;;;;;;;11.83;6.80;;;19.70;71.10;;;22.56;51.65;100959.81;5080818;28;20206;-60
2022/06/09 07:52:08;;;;;;;8.57;6.47;;;19.70;71.50;;;22.60;51.46;100965.53;4910416;29;20208;-60
2022/06/09 07:54:35;;;;;;;13.00;7.47;;;19.70;71.70;;;22.63;51.46;100973.91;4873503;29;20295;-59
2022/06/09 07:57:02;;;;;;;9.73;6.87;;;19.70;71.60;;;22.66;51.47;100976.09;4868965;29;20197;-60
2022/06/09 08:02:08;;;;;;;13.10;7.77;;;19.70;71.60;;;22.84;51.54;100989.22;5167475;27;20619;-61
2022/06/09 08:04:36;;;;;;;10.47;7.17;;;19.80;72.00;;;22.94;51.32;100995.81;5121869;28;20216;-60
2022/06/09 08:07:04;;;;;;;12.37;7.70;;;19.90;71.80;;;23.00;51.03;100989.41;5081886;28;20564;-61
2022/06/09 08:09:37;;;;;;;14.00;7.07;;;19.90;71.30;;;22.99;50.45;100993.19;5046565;28;20190;-58
2022/06/09 08:12:06;;;;;;;9.43;6.50;;;19.90;70.30;;;22.99;50.35;100990.50;5009099;28;20655;-60
2022/06/09 08:14:33;;;;;;;9.40;6.83;;;19.90;70.30;;;22.99;50.52;101003.94;4981559;28;20219;-60
2022/06/09 08:17:00;;;;;;;8.70;7.07;;;20.00;70.20;;;22.99;50.34;101009.31;4917575;29;20301;-61
2022/06/09 08:19:26;;;;;;;12.73;7.70;;;19.90;70.00;;;23.00;50.30;101003.66;4931623;29;20233;-61
2022/06/09 08:24:33;;;;;;;9.97;7.97;;;20.00;70.10;;;22.96;49.89;101013.28;5168639;27;20629;-57
2022/06/09 08:27:01;;;;;;;8.87;7.97;;;19.90;69.50;;;22.92;50.18;101019.41;5105477;28;20196;-59
2022/06/09 08:29:29;;;;;;;10.77;7.17;;;19.90;69.60;;;22.92;50.25;101026.38;5083242;28;20661;-60
2022/06/09 08:32:24;;;;;;;13.10;8.83;;;20.00;69.90;;;22.96;50.26;101020.53;5093023;28;20206;-60
2022/06/09 08:34:51;;;;;;;9.57;7.50;;;20.00;70.10;;;23.11;50.18;101026.06;5096930;28;20586;-59
2022/06/09 08:37:18;;;;;;;11.43;7.03;;;20.10;70.40;;;23.30;49.68;101030.06;5101522;28;20656;-61
2022/06/09 08:39:45;;;;;;;8.87;7.47;;;20.10;70.00;;;23.44;49.50;101042.09;5104870;28;20199;-59
2022/06/09 08:43:45;;;;;;;8.20;6.57;;;20.20;69.70;;;23.49;49.09;101039.47;5084076;28;20210;-60
2022/06/09 08:48:50;;;;;;;11.60;7.33;;;20.30;69.40;;;23.82;48.95;101060.78;5171485;27;20960;-59
2022/06/09 08:51:33;;;;;;;11.20;7.43;;;20.60;69.00;;;23.84;48.39;101063.25;5129597;28;20647;-60
2022/06/09 08:54:11;;;;;;;10.27;7.43;;;20.60;68.50;;;23.84;48.33;101069.44;5092195;28;20195;-60
2022/06/09 08:56:39;;;;;;;11.00;9.00;;;20.70;68.30;;;23.83;48.18;101077.72;5065755;28;20202;-59
2022/06/09 08:59:13;;;;;;;10.87;9.20;;;20.70;67.90;;;23.70;48.76;101078.94;4978715;28;20218;-60
2022/06/09 09:01:46;;;;;;;13.73;8.00;;;20.70;68.00;;;23.58;48.52;101078.28;4855190;29;20224;-61
2022/06/09 09:04:23;;;;;;;12.60;8.30;;;20.60;68.30;;;23.49;49.15;101079.78;4783698;29;20229;-60
2022/06/09 09:07:25;;;;;;;12.10;8.47;;;20.60;68.50;;;23.53;49.32;101080.91;4617658;30;20255;-58
2022/06/09 09:12:44;;;;;;;8.63;7.83;;;20.50;68.40;;;23.73;48.85;101083.81;5144377;27;21079;-60
2022/06/09 09:15:21;;;;;;;8.17;6.97;;;20.60;68.60;;;23.91;48.70;101088.88;5110779;27;20214;-60
2022/06/09 09:18:05;;;;;;;8.37;7.30;;;20.70;68.60;;;24.10;47.86;101084.75;5087256;28;20187;-62
2022/06/09 09:20:39;;;;;;;9.27;6.93;;;20.80;68.40;;;24.36;47.67;101080.44;5061269;28;20217;-61
2022/06/09 09:23:15;;;;;;;9.17;8.00;;;20.90;68.50;;;24.68;47.56;101086.59;5021554;28;20208;-58
2022/06/09 09:25:55;;;;;;;9.47;7.40;;;21.10;67.80;;;25.41;46.35;101085.66;4971625;28;20258;-60
2022/06/09 09:28:30;;;;;;;9.03;6.77;;;21.30;66.90;;;25.85;43.68;101085.28;4842293;29;20276;-57
2022/06/09 09:33:41;;;;;;;7.30;6.60;;;21.70;64.70;;;26.12;43.49;101088.59;5152267;27;21074;-59
2022/06/09 09:36:27;;;;;;;8.53;7.57;;;22.30;63.80;;;26.80;42.07;101090.75;5106496;27;20621;-61
2022/06/09 09:39:13;;;;;;;8.23;6.87;;;22.50;62.90;;;28.09;40.26;101095.09;5083773;28;20261;-59
2022/06/09 09:41:41;;;;;;;7.83;6.47;;;22.90;61.60;;;29.44;36.81;101094.88;5054229;28;20547;-61
2022/06/09 09:44:19;;;;;;;7.27;5.53;;;23.60;59.00;;;30.86;34.97;101100.84;5010800;28;20214;-62
2022/06/09 09:46:54;;;;;;;5.63;5.10;;;24.40;57.90;;;31.16;34.34;101103.00;4943683;28;20232;-61
2022/06/09 09:53:32;;;;;;;7.57;5.20;;;25.60;54.40;;;33.26;31.06;101107.22;5177225;27;20977;-62
2022/06/09 09:56:05;;;;;;;6.97;5.57;;;26.40;51.80;;;33.93;29.57;101102.19;5110935;27;20229;-61
2022/06/09 09:58:39;;;;;;;8.43;6.33;;;27.00;50.00;;;33.70;28.95;101111.69;5096850;28;20230;-61
2022/06/09 10:01:27;;;;;;;6.37;5.70;;;27.30;47.80;;;32.68;29.90;101110.16;5035283;28;20210;-62
2022/06/09 10:10:37;;;;;;;9.27;5.90;;;26.90;47.50;;;29.91;33.88;101120.31;4512704;31;20310;-61
2022/06/09 10:13:21;;;;;;;6.97;5.10;;;26.60;48.60;;;29.42;35.11;101129.63;4376132;32;20251;-61
2022/06/09 10:18:25;;;;;;;8.00;6.37;;;26.20;49.10;;;30.71;32.84;101124.47;5126579;27;20592;-64
2022/06/09 10:21:13;;;;;;;7.70;5.90;;;26.00;49.70;;;31.70;31.88;101132.91;5090062;28;20207;-62
2022/06/09 10:23:51;;;;;;;6.03;5.53;;;26.20;49.90;;;32.80;30.21;101133.31;5067242;28;20197;-61
2022/06/09 10:26:25;;;;;;;7.13;5.83;;;26.60;49.20;;;32.88;29.77;101127.91;5014360;28;20733;-61
2022/06/09 10:29:04;;;;;;;7.10;6.40;;;27.00;47.90;;;32.14;30.41;101140.38;4989855;28;20240;-60
2022/06/09 10:31:50;;;;;;;6.73;6.07;;;27.10;47.00;;;31.20;31.78;101144.81;4761640;29;20285;-61
2022/06/09 10:37:25;;;;;;;6.73;5.50;;;26.70;47.70;;;31.19;32.17;101135.84;5132765;27;20554;-63
2022/06/09 10:40:01;;;;;;;5.93;5.13;;;26.60;48.70;;;32.33;30.90;101137.50;5103837;28;20209;-61
2022/06/09 10:42:39;;;;;;;5.87;5.00;;;26.70;48.30;;;32.87;28.92;101152.78;5093643;28;20218;-65
2022/06/09 10:45:21;;;;;;;5.77;5.17;;;27.00;46.20;;;32.63;28.86;101153.13;5030531;28;20663;-61
2022/06/09 10:57:15;;;;;;;6.33;5.03;;;27.20;45.10;;;30.57;32.38;101164.41;5118559;27;21079;-60
2022/06/09 10:59:52;;;;;;;8.67;6.43;;;27.10;45.60;;;30.29;32.91;101161.84;5063670;28;20212;-64
2022/06/09 11:02:22;;;;;;;6.97;4.53;;;26.90;46.30;;;30.34;32.31;101162.63;5032364;28;20216;-63
2022/06/09 11:04:52;;;;;;;6.87;4.70;;;26.80;46.60;;;30.31;32.14;101170.53;4984461;28;20227;-64
2022/06/09 11:07:52;;;;;;;5.43;4.23;;;26.70;46.30;;;30.06;33.10;101172.53;4883020;28;20355;-60
2022/06/09 11:10:30;;;;;;;7.70;4.83;;;26.60;46.40;;;30.01;33.25;101169.88;4663275;30;20209;-62
2022/06/09 11:13:25;;;;;;;5.30;4.73;;;26.60;46.40;;;29.88;32.64;101186.88;4547926;30;20222;-61
2022/06/09 11:16:06;;;;;;;6.83;5.00;;;26.50;46.40;;;29.56;32.54;101185.91;4329388;32;20279;-61
2022/06/09 11:21:18;;;;;;;4.60;4.13;;;26.40;45.90;;;29.41;33.05;101187.72;5132905;27;20422;-62
2022/06/09 11:24:14;;;;;;;7.77;6.57;;;26.10;46.70;;;29.25;33.25;101177.31;5098226;27;20212;-62
2022/06/09 11:26:51;;;;;;;5.90;4.73;;;26.00;46.90;;;29.18;33.65;101177.66;5045714;28;20303;-61
2022/06/09 11:29:40;;;;;;;4.40;4.00;;;26.00;47.40;;;28.99;33.67;101184.06;5045910;28;20207;-64
2022/06/09 11:32:18;;;;;;;6.67;4.17;;;26.00;46.90;;;28.91;33.65;101196.31;4909759;28;20671;-62
2022/06/09 11:35:34;;;;;;;5.03;4.37;;;25.90;47.00;;;28.81;34.03;101193.72;4735330;29;20332;-61
2022/06/09 11:41:00;;;;;;;4.70;4.20;;;25.80;47.20;;;28.84;33.77;101204.78;5125144;27;20887;-62
2022/06/09 11:43:47;;;;;;;5.23;4.37;;;25.60;46.80;;;28.98;33.38;101196.78;5089609;27;20866;-63
2022/06/09 11:46:21;;;;;;;6.20;4.83;;;25.70;46.40;;;29.26;33.33;101196.00;5080366;27;20308;-63
2022/06/09 11:48:55;;;;;;;4.57;3.57;;;25.70;46.90;;;29.85;31.77;101197.53;5009842;28;20213;-62
2022/06/09 11:51:27;;;;;;;3.73;3.40;;;25.90;46.20;;;30.15;30.67;101205.25;4898454;28;20627;-64
2022/06/09 11:53:58;;;;;;;4.80;3.67;;;26.00;45.00;;;29.98;31.06;101199.50;4815863;29;20678;-63
2022/06/09 11:56:45;;;;;;;4.70;3.80;;;26.10;44.70;;;29.61;31.80;101204.84;4688720;30;20256;-64
2022/06/09 11:59:15;;;;;;;3.60;3.07;;;26.00;44.60;;;29.32;32.43;101205.72;4599190;30;20877;-64
2022/06/09 12:04:58;;;;;;;3.03;2.83;;;26.00;45.50;;;29.27;32.97;101213.91;5132942;27;20597;-64
2022/06/09 12:07:57;;;;;;;4.90;3.63;;;26.00;46.40;;;29.02;33.15;101216.84;5055426;28;20227;-66